CheckWX is a tool to help pilots better visualize weather data.  It is not intended as a substitute for an official pre-flight weather briefing.

05:28:36 UTC

KDSM TAF
Des Moines International Airport
Des Moines, Iowa, USA
KDSM 240319Z 2403/2424 04008KT 4SM -SN BR OVC006 FM240500 03005KT 2SM -SN BR OVC005 FM240900 36008KT 1 1/2SM -SN BR OVC003 FM241400 35008KT 1 1/2SM BR VCSH OVC008 FM241800 34009KT 2SM BR OVC008

Jan-24@
03:00 UTC

Jan-24 @ 03:00 UTC

Jan-24@
05:00 UTC

Jan-24 @ 05:00 UTC

KDSM 240319Z 2403/2424 04008KT 4SM -SN BR OVC006

Expired

Wind
  • 040° at 8 KTS
Conditions
Light Snow, Mist
Cloud Levels
  • Overcast at 600' AGL

Jan-24@
05:00 UTC

Jan-24 @ 05:00 UTC

Jan-24@
09:00 UTC

Jan-24 @ 09:00 UTC

FM240500 03005KT 2SM -SN BR OVC005

From

From Standard forecast or significant change

Wind
  • 030° at 5 KTS
Conditions
Light Snow, Mist
Cloud Levels
  • Overcast at 500' AGL

Jan-24@
09:00 UTC

Jan-24 @ 09:00 UTC

Jan-24@
14:00 UTC

Jan-24 @ 14:00 UTC

FM240900 36008KT 1 1/2SM -SN BR OVC003

From

From Standard forecast or significant change

Wind
  • 360° at 8 KTS
Conditions
Light Snow, Mist
Cloud Levels
  • Overcast at 300' AGL

Jan-24@
14:00 UTC

Jan-24 @ 14:00 UTC

Jan-24@
18:00 UTC

Jan-24 @ 18:00 UTC

FM241400 35008KT 1 1/2SM BR VCSH OVC008

From

From Standard forecast or significant change

Wind
  • 350° at 8 KTS
Conditions
Mist
Cloud Levels
  • Overcast at 800' AGL

Jan-24@
18:00 UTC

Jan-24 @ 18:00 UTC

Jan-25@
00:00 UTC

Jan-25 @ 00:00 UTC

FM241800 34009KT 2SM BR OVC008

From

From Standard forecast or significant change

Wind
  • 340° at 9 KTS
Conditions
Mist
Cloud Levels
  • Overcast at 800' AGL